createdAt,value
2019-05-21T00:02:06.599Z,26.57
2019-05-21T00:04:36.371Z,36.50
2019-05-21T00:07:06.372Z,28.27
2019-05-21T00:09:36.349Z,40.37
2019-05-21T00:12:06.303Z,32.07
2019-05-21T00:14:36.236Z,43.37
2019-05-21T00:17:05.887Z,30.33
2019-05-21T00:19:35.676Z,32.77
2019-05-21T00:22:05.339Z,26.30
2019-05-21T00:24:35.134Z,33.03
2019-05-21T00:27:15.511Z,27.73
2019-05-21T00:30:22.769Z,35.57
2019-05-21T00:33:29.107Z,25.37
2019-05-21T00:36:36.498Z,34.70
2019-05-21T00:39:42.975Z,24.30
2019-05-21T00:42:16.154Z,35.83
2019-05-21T00:44:45.951Z,24.77
2019-05-21T00:47:15.751Z,38.37
2019-05-21T00:49:45.589Z,23.67
2019-05-21T00:52:15.799Z,30.23
2019-05-21T00:54:45.572Z,23.20
2019-05-21T00:57:15.795Z,32.60
2019-05-21T00:59:45.942Z,26.70
2019-05-21T01:02:15.805Z,33.73
2019-05-21T01:04:59.748Z,25.10
2019-05-21T01:07:17.066Z,33.13
2019-05-21T01:09:46.906Z,24.30
2019-05-21T01:12:16.727Z,28.87
2019-05-21T01:14:46.526Z,25.87
2019-05-21T01:17:16.632Z,32.23
2019-05-21T01:19:46.383Z,26.50
2019-05-21T01:22:16.998Z,36.17
2019-05-21T01:24:46.756Z,25.10
2019-05-21T01:27:16.654Z,32.93
2019-05-21T01:29:47.069Z,28.17
2019-05-21T01:32:16.847Z,26.53
2019-05-21T01:34:46.758Z,32.37
2019-05-21T01:37:16.750Z,26.47
2019-05-21T01:39:49.485Z,35.07
2019-05-21T01:42:19.474Z,28.63
2019-05-21T01:44:49.353Z,35.13
2019-05-21T01:47:19.098Z,36.77
2019-05-21T01:49:49.255Z,46.10
2019-05-21T01:52:19.506Z,29.90
2019-05-21T01:54:49.392Z,42.87
2019-05-21T01:57:19.695Z,30.70
2019-05-21T01:59:49.870Z,44.77
2019-05-21T02:02:19.900Z,33.87
2019-05-21T02:04:50.435Z,43.00
2019-05-21T02:07:20.225Z,38.50
2019-05-21T02:09:58.848Z,45.57
2019-05-21T02:12:28.686Z,32.03
2019-05-21T02:14:58.540Z,49.47
2019-05-21T02:17:28.331Z,54.13
2019-05-21T02:19:58.135Z,34.07
2019-05-21T02:22:27.973Z,53.90
2019-05-21T02:24:57.824Z,38.10
2019-05-21T02:27:27.649Z,48.20
2019-05-21T02:29:57.514Z,35.60
2019-05-21T02:32:27.527Z,47.57
2019-05-21T02:34:57.677Z,37.97
2019-05-21T02:37:27.956Z,47.50
2019-05-21T02:39:57.703Z,39.60
2019-05-21T02:42:27.914Z,50.53
2019-05-21T02:45:02.454Z,36.40
2019-05-21T02:47:32.559Z,57.63
2019-05-21T02:50:02.397Z,59.37
2019-05-21T02:52:32.151Z,67.93
2019-05-21T02:55:02.082Z,43.87
2019-05-21T02:57:43.501Z,76.07
2019-05-21T03:00:38.460Z,59.87
2019-05-21T03:03:09.492Z,73.27
2019-05-21T03:05:39.410Z,58.20
2019-05-21T03:08:09.247Z,65.50
2019-05-21T03:10:39.106Z,65.07
2019-05-21T03:13:08.933Z,68.37
2019-05-21T03:15:38.906Z,51.30
2019-05-21T03:18:08.749Z,64.73
2019-05-21T03:20:38.827Z,53.33
2019-05-21T03:23:08.581Z,66.73
2019-05-21T03:25:38.744Z,41.73
2019-05-21T03:28:08.559Z,72.83
2019-05-21T03:30:38.903Z,51.10
2019-05-21T03:33:08.704Z,71.83
2019-05-21T03:35:39.180Z,67.47
2019-05-21T03:38:09.347Z,57.23
2019-05-21T03:40:39.317Z,80.10
2019-05-21T03:43:09.146Z,54.90
2019-05-21T03:45:39.001Z,64.83
2019-05-21T03:48:09.329Z,50.33
2019-05-21T03:50:39.176Z,77.10
2019-05-21T03:53:09.091Z,49.17
2019-05-21T03:55:39.009Z,75.80
2019-05-21T03:58:09.703Z,40.80
2019-05-21T04:00:39.602Z,75.50
2019-05-21T04:03:09.460Z,79.30
2019-05-21T04:05:39.564Z,62.97
2019-05-21T04:08:09.335Z,81.07
2019-05-21T04:10:39.109Z,68.53
2019-05-21T04:13:09.448Z,50.77
2019-05-21T04:15:54.575Z,73.67
2019-05-21T04:18:41.211Z,46.87
2019-05-21T04:21:11.283Z,65.37
2019-05-21T04:23:41.183Z,65.10
2019-05-21T04:26:10.997Z,97.83
2019-05-21T04:28:44.788Z,85.30
2019-05-21T04:31:24.167Z,62.37
2019-05-21T04:33:54.192Z,86.73
2019-05-21T04:36:24.286Z,68.13
2019-05-21T04:45:31.744Z,92.03
2019-05-21T04:48:17.867Z,52.97
2019-05-21T04:57:53.496Z,84.63
2019-05-21T05:00:46.282Z,57.30
2019-05-21T05:03:16.128Z,92.00
2019-05-21T05:05:57.319Z,71.53
2019-05-21T05:08:31.573Z,91.57
2019-05-21T05:11:17.750Z,61.47
2019-05-21T05:13:51.313Z,63.27
2019-05-21T05:16:27.511Z,78.40
2019-05-21T05:18:57.829Z,79.17
2019-05-21T05:21:35.474Z,60.50
2019-05-21T05:24:05.699Z,94.87
2019-05-21T05:27:22.517Z,74.13
2019-05-21T05:29:58.705Z,87.87
2019-05-21T05:33:09.943Z,66.93
2019-05-21T05:35:20.653Z,73.03
2019-05-21T05:37:56.068Z,61.90
2019-05-21T05:40:32.376Z,61.27
2019-05-21T05:46:13.477Z,56.73
2019-05-21T05:48:45.119Z,77.43
2019-05-21T05:51:24.635Z,53.20
2019-05-21T05:54:00.600Z,72.23
2019-05-21T05:56:37.694Z,55.70
2019-05-21T05:59:07.848Z,59.93
2019-05-21T06:01:39.201Z,47.27
2019-05-21T06:04:09.475Z,53.17
2019-05-21T06:06:41.428Z,36.73
2019-05-21T06:09:13.037Z,44.30
2019-05-21T06:11:45.387Z,41.17
2019-05-21T06:14:20.697Z,35.10
2019-05-21T06:17:00.541Z,51.60
2019-05-21T06:19:43.774Z,29.90
2019-05-21T06:22:23.996Z,48.80
2019-05-21T06:25:09.070Z,35.30
2019-05-21T06:27:35.174Z,45.33
2019-05-21T06:30:08.915Z,36.50
2019-05-21T06:33:17.450Z,42.80
2019-05-21T06:35:29.169Z,32.50
2019-05-21T06:38:16.598Z,46.73
2019-05-21T06:40:42.394Z,35.67
2019-05-21T06:43:45.144Z,46.00
2019-05-21T06:46:19.173Z,34.30
2019-05-21T06:48:57.502Z,46.37
2019-05-21T06:51:35.705Z,32.93
2019-05-21T06:54:08.674Z,43.47
2019-05-21T06:56:39.525Z,41.93
2019-05-21T06:59:25.589Z,54.00
2019-05-21T07:01:54.250Z,41.73
2019-05-21T07:04:44.521Z,54.17
2019-05-21T07:07:23.118Z,45.53
2019-05-21T07:10:07.812Z,55.43
2019-05-21T07:12:46.851Z,51.00
2019-05-21T07:15:22.356Z,37.50
2019-05-21T07:17:55.205Z,44.73
2019-05-21T07:20:37.065Z,29.03
2019-05-21T07:23:11.658Z,47.73
2019-05-21T07:25:47.597Z,29.23
2019-05-21T07:28:25.122Z,40.73
2019-05-21T07:30:58.361Z,32.00
2019-05-21T07:33:36.049Z,35.23
2019-05-21T07:36:06.676Z,28.07
2019-05-21T07:38:52.620Z,42.50
2019-05-21T07:41:10.466Z,28.07
2019-05-21T07:43:40.196Z,36.07
2019-05-21T07:46:10.048Z,26.80
2019-05-21T07:48:39.721Z,35.13
2019-05-21T07:51:09.460Z,22.83
2019-05-21T07:53:39.238Z,24.77
2019-05-21T07:56:08.944Z,35.20
2019-05-21T07:58:38.615Z,21.57
2019-05-21T08:01:08.348Z,36.20
2019-05-21T08:03:38.070Z,20.97
2019-05-21T08:06:07.829Z,31.13
2019-05-21T08:08:37.788Z,23.37
2019-05-21T08:11:08.020Z,29.50
2019-05-21T08:13:37.814Z,19.87
2019-05-21T08:16:07.494Z,27.27
2019-05-21T08:18:37.289Z,25.93
2019-05-21T08:21:07.230Z,26.73
2019-05-21T08:23:36.960Z,29.20
2019-05-21T08:26:06.698Z,22.60
2019-05-21T08:28:36.632Z,24.60
2019-05-21T08:31:06.498Z,28.50
2019-05-21T08:33:40.102Z,19.70
2019-05-21T08:36:19.030Z,23.60
2019-05-21T08:38:53.107Z,31.93
2019-05-21T08:41:28.154Z,33.00
2019-05-21T08:43:58.896Z,34.20
2019-05-21T08:46:28.716Z,33.60
2019-05-21T08:48:58.574Z,30.07
2019-05-21T08:51:29.042Z,31.90
2019-05-21T08:53:58.773Z,31.37
2019-05-21T08:56:28.560Z,40.50
2019-05-21T08:58:58.614Z,28.00
2019-05-21T09:01:28.528Z,26.80
2019-05-21T09:03:58.604Z,26.10
2019-05-21T09:06:28.639Z,38.00
2019-05-21T09:08:59.271Z,27.10
2019-05-21T09:11:29.083Z,25.87
2019-05-21T09:13:59.127Z,24.13
2019-05-21T09:16:28.894Z,24.30
2019-05-21T09:18:58.965Z,25.47
2019-05-21T09:21:28.778Z,31.67
2019-05-21T09:23:58.556Z,25.60
2019-05-21T09:26:28.642Z,25.70
2019-05-21T09:28:58.431Z,25.00
2019-05-21T09:31:28.457Z,29.73
2019-05-21T09:33:58.526Z,26.77
2019-05-21T09:36:28.437Z,29.87
2019-05-21T09:38:58.201Z,31.20
2019-05-21T09:41:27.885Z,42.40
2019-05-21T09:43:58.206Z,30.53
2019-05-21T09:46:28.126Z,30.00
2019-05-21T09:48:57.856Z,32.00
2019-05-21T09:51:27.652Z,27.87
2019-05-21T09:53:57.444Z,30.20
2019-05-21T09:56:34.649Z,38.00
2019-05-21T09:59:13.151Z,31.30
2019-05-21T10:01:47.956Z,32.00
2019-05-21T10:04:16.726Z,42.20
2019-05-21T10:06:46.475Z,26.50
2019-05-21T10:09:17.842Z,30.87
2019-05-21T10:11:49.133Z,33.40
2019-05-21T10:14:19.142Z,26.20
2019-05-21T10:16:48.874Z,25.87
2019-05-21T10:19:18.666Z,28.50
2019-05-21T10:21:48.396Z,24.50
2019-05-21T10:24:18.238Z,27.93
2019-05-21T10:26:48.023Z,24.47
2019-05-21T10:29:17.790Z,31.40
2019-05-21T10:31:50.722Z,27.13
2019-05-21T10:34:20.808Z,20.87
2019-05-21T10:36:50.807Z,22.27
2019-05-21T10:39:20.880Z,21.10
2019-05-21T10:41:50.784Z,22.23
2019-05-21T10:44:20.523Z,23.30
2019-05-21T10:46:50.338Z,17.93
2019-05-21T10:49:20.661Z,21.90
2019-05-21T10:51:50.366Z,22.07
2019-05-21T10:54:20.180Z,24.97
2019-05-21T10:56:49.988Z,21.23
2019-05-21T10:59:19.826Z,30.93
2019-05-21T11:01:53.843Z,21.93
2019-05-21T11:04:25.574Z,33.37
2019-05-21T11:06:55.382Z,21.83
2019-05-21T11:09:25.743Z,31.57
2019-05-21T11:11:55.486Z,21.07
2019-05-21T11:14:25.559Z,22.37
2019-05-21T11:16:55.380Z,24.20
2019-05-21T11:19:26.264Z,32.23
2019-05-21T11:21:56.417Z,22.00
2019-05-21T11:24:26.529Z,31.87
2019-05-21T11:26:56.213Z,21.00
2019-05-21T11:29:26.020Z,27.67
2019-05-21T11:31:57.690Z,26.47
2019-05-21T11:34:27.262Z,41.33
2019-05-21T11:36:57.087Z,25.93
2019-05-21T11:39:27.417Z,41.80
2019-05-21T11:41:57.202Z,29.07
2019-05-21T11:44:27.143Z,29.60
2019-05-21T11:46:57.005Z,32.03
2019-05-21T11:49:27.029Z,32.60
2019-05-21T11:51:56.862Z,45.83
2019-05-21T11:54:26.594Z,36.67
2019-05-21T11:56:56.385Z,32.87
2019-05-21T11:59:26.138Z,38.63
2019-05-21T12:01:55.938Z,37.33
2019-05-21T12:04:25.777Z,30.37
2019-05-21T12:06:57.104Z,34.80
2019-05-21T12:09:26.819Z,37.43
2019-05-21T12:11:56.585Z,42.90
2019-05-21T12:14:26.343Z,37.93
2019-05-21T12:16:56.475Z,37.27
2019-05-21T12:19:26.187Z,53.23
2019-05-21T12:21:56.167Z,37.23
2019-05-21T12:24:27.628Z,48.47
2019-05-21T12:26:57.740Z,34.53
2019-05-21T12:29:27.510Z,52.00
2019-05-21T12:31:57.979Z,42.17
2019-05-21T12:34:27.729Z,43.80
2019-05-21T12:36:57.892Z,43.07
2019-05-21T12:39:27.677Z,51.80
2019-05-21T12:41:57.519Z,40.87
2019-05-21T12:44:27.375Z,34.63
2019-05-21T12:46:57.117Z,31.27
2019-05-21T12:49:27.283Z,33.00
2019-05-21T12:51:57.130Z,38.30
2019-05-21T12:54:27.142Z,39.67
2019-05-21T12:56:56.873Z,40.30
2019-05-21T12:59:26.638Z,34.40
2019-05-21T13:01:56.440Z,35.93
2019-05-21T13:04:26.257Z,42.37
2019-05-21T13:06:56.025Z,31.83
2019-05-21T13:09:32.651Z,29.07
2019-05-21T13:11:57.284Z,34.00
2019-05-21T13:14:27.043Z,33.13
2019-05-21T13:16:56.894Z,28.93
2019-05-21T13:19:26.708Z,32.47
2019-05-21T13:21:56.522Z,36.27
2019-05-21T13:24:26.733Z,29.10
2019-05-21T13:26:56.500Z,24.67
2019-05-21T13:29:26.553Z,24.13
2019-05-21T13:31:56.451Z,21.03
2019-05-21T13:34:27.004Z,26.43
2019-05-21T13:36:57.103Z,23.20
2019-05-21T13:39:27.119Z,30.27
2019-05-21T13:41:56.861Z,24.93
2019-05-21T13:44:26.751Z,28.77
2019-05-21T13:46:56.726Z,20.77
2019-05-21T13:49:27.044Z,20.93
2019-05-21T13:51:57.278Z,18.40
2019-05-21T13:54:27.280Z,25.60
2019-05-21T13:56:57.115Z,22.27
2019-05-21T13:59:27.403Z,22.10
2019-05-21T14:01:57.416Z,18.93
2019-05-21T14:04:27.197Z,25.20
2019-05-21T14:06:57.135Z,21.33
2019-05-21T14:09:28.722Z,15.47
2019-05-21T14:11:59.125Z,24.80
2019-05-21T14:14:29.417Z,19.53
2019-05-21T14:16:59.732Z,23.17
2019-05-21T14:19:29.468Z,16.53
2019-05-21T14:21:59.355Z,23.43
2019-05-21T14:24:29.592Z,15.73
2019-05-21T14:26:59.829Z,26.17
2019-05-21T14:29:29.602Z,16.40
2019-05-21T14:31:59.848Z,22.73
2019-05-21T14:34:29.841Z,17.63
2019-05-21T14:37:01.106Z,21.30
2019-05-21T14:39:31.252Z,16.90
2019-05-21T14:42:01.106Z,20.50
2019-05-21T14:44:30.947Z,16.13
2019-05-21T14:47:03.269Z,14.20
2019-05-21T14:49:33.094Z,18.23
2019-05-21T14:52:03.185Z,14.73
2019-05-21T14:54:33.366Z,12.47
2019-05-21T14:57:05.888Z,12.77
2019-05-21T15:02:49.087Z,12.90
2019-05-21T15:05:19.193Z,19.87
2019-05-21T15:07:55.067Z,10.47
2019-05-21T15:10:47.215Z,10.13
2019-05-21T15:13:08.759Z,13.43
2019-05-21T15:15:36.803Z,9.87
2019-05-21T15:18:06.796Z,9.90
2019-05-21T15:20:47.093Z,12.43
2019-05-21T15:23:16.890Z,9.57
2019-05-21T15:25:47.074Z,6.47
2019-05-21T15:28:17.124Z,12.33
2019-05-21T15:30:48.797Z,9.10
2019-05-21T15:33:18.574Z,7.70
2019-05-21T15:35:49.819Z,10.73
2019-05-21T15:38:21.155Z,7.37
2019-05-21T15:41:08.415Z,9.57
2019-05-21T15:43:22.969Z,7.47
2019-05-21T15:45:52.832Z,7.50
2019-05-21T15:48:26.330Z,8.67
2019-05-21T15:51:04.650Z,8.10
2019-05-21T15:53:55.375Z,10.07
2019-05-21T15:56:25.233Z,7.57
2019-05-21T15:59:05.379Z,7.87
2019-05-21T16:01:40.568Z,7.10
2019-05-21T16:04:16.079Z,9.57
2019-05-21T16:06:44.420Z,7.00
2019-05-21T16:09:14.152Z,10.03
2019-05-21T16:11:43.998Z,7.63
2019-05-21T16:14:13.803Z,9.00
2019-05-21T16:16:46.671Z,8.87
2019-05-21T16:19:16.480Z,10.33
2019-05-21T16:21:50.600Z,9.00
2019-05-21T16:24:20.411Z,8.43
2019-05-21T16:26:50.139Z,11.67
2019-05-21T16:29:19.831Z,7.90
2019-05-21T16:31:49.945Z,11.47
2019-05-21T16:34:19.667Z,7.83
2019-05-21T16:36:49.477Z,10.17
2019-05-21T16:39:21.226Z,7.80
2019-05-21T16:41:51.024Z,8.20
2019-05-21T16:44:20.825Z,10.57
2019-05-21T16:46:50.621Z,8.70
2019-05-21T16:49:20.423Z,10.93
2019-05-21T16:51:50.225Z,8.80
2019-05-21T16:54:20.019Z,11.67
2019-05-21T16:56:50.314Z,8.50
2019-05-21T16:59:22.183Z,9.77
2019-05-21T17:01:52.149Z,8.50
2019-05-21T17:04:21.991Z,11.90
2019-05-21T17:06:58.181Z,7.67
2019-05-21T17:09:28.446Z,9.47
2019-05-21T17:12:00.329Z,8.00
2019-05-21T17:14:30.672Z,7.77
2019-05-21T17:17:00.797Z,11.33
2019-05-21T17:19:30.935Z,8.27
2019-05-21T17:22:00.929Z,8.70
2019-05-21T17:24:33.022Z,10.73
2019-05-21T17:27:10.133Z,10.03
2019-05-21T17:29:40.275Z,12.20
2019-05-21T17:32:10.253Z,10.30
2019-05-21T17:34:47.894Z,10.60
2019-05-21T17:37:19.024Z,10.73
2019-05-21T17:39:49.182Z,13.37
2019-05-21T17:42:19.041Z,10.27
2019-05-21T17:44:49.010Z,10.23
2019-05-21T17:47:19.227Z,10.03
2019-05-21T17:49:49.151Z,10.43
2019-05-21T17:52:19.570Z,9.30
2019-05-21T17:54:56.769Z,8.93
2019-05-21T17:57:22.079Z,8.90
2019-05-21T17:59:52.051Z,14.03
2019-05-21T18:02:23.197Z,9.80
2019-05-21T18:04:56.997Z,10.17
2019-05-21T18:07:26.852Z,9.93
2019-05-21T18:10:00.654Z,10.20
2019-05-21T18:12:32.358Z,11.00
2019-05-21T18:15:06.734Z,8.90
2019-05-21T18:17:37.549Z,11.57
2019-05-21T18:20:08.546Z,13.57
2019-05-21T18:22:40.161Z,9.97
2019-05-21T18:25:14.272Z,9.77
2019-05-21T18:27:44.746Z,9.47
2019-05-21T18:30:15.883Z,9.73
2019-05-21T18:32:45.852Z,10.57
2019-05-21T18:35:16.086Z,10.43
2019-05-21T18:37:55.707Z,11.03
2019-05-21T18:40:26.652Z,9.40
2019-05-21T18:42:56.638Z,11.03
2019-05-21T18:45:26.414Z,11.07
2019-05-21T18:48:00.727Z,10.33
2019-05-21T18:50:36.254Z,10.67
2019-05-21T18:53:01.851Z,11.53
2019-05-21T18:55:31.751Z,14.27
2019-05-21T18:58:01.586Z,9.73
2019-05-21T19:00:31.859Z,12.90
2019-05-21T19:03:04.897Z,11.80
2019-05-21T19:05:35.145Z,14.77
2019-05-21T19:08:09.726Z,10.57
2019-05-21T19:10:42.519Z,10.63
2019-05-21T19:13:12.407Z,9.73
2019-05-21T19:15:42.713Z,9.47
2019-05-21T19:18:12.529Z,11.30
2019-05-21T19:20:42.263Z,11.50
2019-05-21T19:23:12.253Z,14.77
2019-05-21T19:25:41.988Z,11.20
2019-05-21T19:28:11.949Z,11.40
2019-05-21T19:30:42.027Z,14.43
2019-05-21T19:33:12.487Z,12.23
2019-05-21T19:35:42.282Z,14.47
2019-05-21T19:38:11.972Z,12.07
2019-05-21T19:40:41.772Z,11.13
2019-05-21T19:43:14.093Z,10.13
2019-05-21T19:45:43.944Z,15.93
2019-05-21T19:48:13.765Z,12.60
2019-05-21T19:50:43.869Z,12.83
2019-05-21T19:53:13.618Z,20.87
2019-05-21T19:55:47.191Z,29.33
2019-05-21T19:58:17.073Z,22.13
2019-05-21T20:00:48.583Z,64.33
2019-05-21T20:03:19.126Z,30.63
2019-05-21T20:05:50.593Z,27.63
2019-05-21T20:08:20.624Z,34.43
2019-05-21T20:10:53.219Z,29.23
2019-05-21T20:13:32.258Z,42.90
2019-05-21T20:15:55.855Z,33.67
2019-05-21T20:18:26.094Z,36.77
2019-05-21T20:20:57.117Z,45.53
2019-05-21T20:23:27.178Z,34.37
2019-05-21T20:25:57.321Z,33.97
2019-05-21T20:28:27.232Z,51.73
2019-05-21T20:30:57.468Z,35.13
2019-05-21T20:33:28.435Z,38.17
2019-05-21T20:35:59.011Z,39.63
2019-05-21T20:38:29.637Z,62.13
2019-05-21T20:40:59.410Z,42.80
2019-05-21T20:43:29.273Z,43.97
2019-05-21T20:45:59.875Z,45.10
2019-05-21T20:48:37.450Z,44.47
2019-05-21T20:51:09.138Z,59.40
2019-05-21T20:53:39.083Z,42.23
2019-05-21T20:56:09.140Z,55.40
2019-05-21T20:58:39.402Z,41.10
2019-05-21T21:01:09.589Z,58.07
2019-05-21T21:03:40.732Z,48.13
2019-05-21T21:06:12.691Z,58.13
2019-05-21T21:08:44.615Z,40.10
2019-05-21T21:11:15.688Z,56.37
2019-05-21T21:13:46.145Z,40.70
2019-05-21T21:16:16.622Z,38.77
2019-05-21T21:18:48.439Z,56.60
2019-05-21T21:21:18.902Z,44.10
2019-05-21T21:23:50.657Z,40.40
2019-05-21T21:26:20.925Z,43.97
2019-05-21T21:28:50.758Z,42.53
2019-05-21T21:31:20.855Z,39.37
2019-05-21T21:33:57.317Z,44.37
2019-05-21T21:36:28.694Z,42.50
2019-05-21T21:38:59.694Z,42.80
2019-05-21T21:41:30.061Z,54.47
2019-05-21T21:44:00.098Z,44.10
2019-05-21T21:46:29.830Z,47.13
2019-05-21T21:49:00.225Z,41.43
2019-05-21T21:51:30.089Z,44.40
2019-05-21T21:54:00.267Z,61.67
2019-05-21T21:56:31.333Z,43.37
2019-05-21T21:59:01.297Z,44.90
2019-05-21T22:01:41.765Z,43.23
2019-05-21T22:04:14.025Z,63.20
2019-05-21T22:06:45.920Z,43.47
2019-05-21T22:09:18.165Z,52.90
2019-05-21T22:11:49.330Z,51.83
2019-05-21T22:14:19.443Z,60.37
2019-05-21T22:16:51.828Z,48.70
2019-05-21T22:19:23.085Z,49.93
2019-05-21T22:21:53.199Z,47.80
2019-05-21T22:24:23.683Z,65.17
2019-05-21T22:26:53.979Z,48.50
2019-05-21T22:29:23.873Z,46.53
2019-05-21T22:31:53.735Z,46.13
2019-05-21T22:34:23.802Z,59.93
2019-05-21T22:36:53.710Z,47.47
2019-05-21T22:39:24.044Z,47.07
2019-05-21T22:41:53.893Z,60.50
2019-05-21T22:44:23.708Z,38.50
2019-05-21T22:46:53.560Z,42.67
2019-05-21T22:49:23.722Z,56.63
2019-05-21T22:51:53.493Z,37.20
2019-05-21T22:54:23.639Z,51.57
2019-05-21T22:56:53.424Z,40.47
2019-05-21T22:59:23.186Z,33.00
2019-05-21T23:01:55.070Z,29.97
2019-05-21T23:04:25.492Z,26.80
2019-05-21T23:06:55.349Z,31.27
2019-05-21T23:09:25.107Z,24.10
2019-05-21T23:11:55.281Z,30.63
2019-05-21T23:14:25.264Z,26.20
2019-05-21T23:16:55.626Z,40.37
2019-05-21T23:19:27.017Z,32.20
2019-05-21T23:21:57.950Z,30.67
2019-05-21T23:24:29.681Z,32.20
2019-05-21T23:26:59.507Z,31.47
2019-05-21T23:29:29.336Z,29.97
2019-05-21T23:31:59.167Z,39.37
2019-05-21T23:34:31.651Z,29.73
2019-05-21T23:37:02.712Z,41.23
2019-05-21T23:39:34.163Z,30.07
2019-05-21T23:42:05.920Z,31.57
2019-05-21T23:44:36.281Z,29.43
2019-05-21T23:47:08.360Z,33.80
2019-05-21T23:49:38.845Z,31.13
2019-05-21T23:52:08.730Z,43.30
2019-05-21T23:54:38.471Z,27.20
2019-05-21T23:57:10.530Z,26.77
2019-05-21T23:59:41.060Z,35.23
